sensor_id;sensor_type;location;lat;lon;timestamp;temperature;humidity
13652;DHT22;6899;51.546;6.912;2023-04-01T00:03:30;9.00;99.90
13652;DHT22;6899;51.546;6.912;2023-04-01T00:05:59;9.00;99.90
13652;DHT22;6899;51.546;6.912;2023-04-01T00:08:32;9.00;99.90
13652;DHT22;6899;51.546;6.912;2023-04-01T00:10:59;9.00;99.90
13652;DHT22;6899;51.546;6.912;2023-04-01T00:13:26;9.00;99.90
13652;DHT22;6899;51.546;6.912;2023-04-01T00:15:56;9.00;99.90
13652;DHT22;6899;51.546;6.912;2023-04-01T00:18:24;9.00;99.90
13652;DHT22;6899;51.546;6.912;2023-04-01T00:20:53;9.00;99.90
13652;DHT22;6899;51.546;6.912;2023-04-01T00:23:21;9.00;99.90
13652;DHT22;6899;51.546;6.912;2023-04-01T00:25:48;9.00;99.90
13652;DHT22;6899;51.546;6.912;2023-04-01T00:28:15;9.00;99.90
13652;DHT22;6899;51.546;6.912;2023-04-01T00:30:42;9.00;99.90
13652;DHT22;6899;51.546;6.912;2023-04-01T00:33:09;9.10;99.90
13652;DHT22;6899;51.546;6.912;2023-04-01T00:35:36;9.10;99.90
13652;DHT22;6899;51.546;6.912;2023-04-01T00:38:05;9.00;99.90
13652;DHT22;6899;51.546;6.912;2023-04-01T00:40:34;9.00;99.90
13652;DHT22;6899;51.546;6.912;2023-04-01T00:43:02;9.00;99.90
13652;DHT22;6899;51.546;6.912;2023-04-01T00:45:34;9.00;99.90
13652;DHT22;6899;51.546;6.912;2023-04-01T00:48:05;9.00;99.90
13652;DHT22;6899;51.546;6.912;2023-04-01T00:50:34;9.00;99.90
13652;DHT22;6899;51.546;6.912;2023-04-01T00:53:04;9.00;99.90
13652;DHT22;6899;51.546;6.912;2023-04-01T00:55:42;9.00;99.90
13652;DHT22;6899;51.546;6.912;2023-04-01T00:58:14;9.00;99.90
13652;DHT22;6899;51.546;6.912;2023-04-01T01:00:43;9.00;99.90
13652;DHT22;6899;51.546;6.912;2023-04-01T01:03:11;9.00;99.90
13652;DHT22;6899;51.546;6.912;2023-04-01T01:05:58;9.00;99.90
13652;DHT22;6899;51.546;6.912;2023-04-01T01:08:36;9.00;99.90
13652;DHT22;6899;51.546;6.912;2023-04-01T01:11:08;9.00;99.90
13652;DHT22;6899;51.546;6.912;2023-04-01T01:13:41;8.90;99.90
13652;DHT22;6899;51.546;6.912;2023-04-01T01:16:17;9.00;99.90
13652;DHT22;6899;51.546;6.912;2023-04-01T01:18:50;9.00;99.90
13652;DHT22;6899;51.546;6.912;2023-04-01T01:21:42;8.90;99.90
13652;DHT22;6899;51.546;6.912;2023-04-01T01:24:45;8.90;99.90
13652;DHT22;6899;51.546;6.912;2023-04-01T01:27:20;8.90;99.90
13652;DHT22;6899;51.546;6.912;2023-04-01T01:30:14;8.90;99.90
13652;DHT22;6899;51.546;6.912;2023-04-01T01:33:11;8.90;99.90
13652;DHT22;6899;51.546;6.912;2023-04-01T01:35:46;8.90;99.90
13652;DHT22;6899;51.546;6.912;2023-04-01T01:38:20;8.90;99.90
13652;DHT22;6899;51.546;6.912;2023-04-01T01:40:50;8.90;99.90
13652;DHT22;6899;51.546;6.912;2023-04-01T01:43:22;8.90;99.90
13652;DHT22;6899;51.546;6.912;2023-04-01T01:46:00;8.90;99.90
13652;DHT22;6899;51.546;6.912;2023-04-01T01:48:29;8.90;99.90
13652;DHT22;6899;51.546;6.912;2023-04-01T01:50:59;8.80;99.90
13652;DHT22;6899;51.546;6.912;2023-04-01T01:53:26;8.90;99.90
13652;DHT22;6899;51.546;6.912;2023-04-01T01:55:53;8.90;99.90
13652;DHT22;6899;51.546;6.912;2023-04-01T01:58:23;8.90;99.90
13652;DHT22;6899;51.546;6.912;2023-04-01T02:00:53;8.90;99.90
13652;DHT22;6899;51.546;6.912;2023-04-01T02:03:25;8.80;99.90
13652;DHT22;6899;51.546;6.912;2023-04-01T02:05:55;8.90;99.90
13652;DHT22;6899;51.546;6.912;2023-04-01T02:08:26;8.90;99.90
13652;DHT22;6899;51.546;6.912;2023-04-01T02:10:57;8.80;99.90
13652;DHT22;6899;51.546;6.912;2023-04-01T02:13:31;8.80;99.90
13652;DHT22;6899;51.546;6.912;2023-04-01T02:16:06;8.80;99.90
13652;DHT22;6899;51.546;6.912;2023-04-01T02:18:36;8.80;99.90
13652;DHT22;6899;51.546;6.912;2023-04-01T02:21:05;8.80;99.90
13652;DHT22;6899;51.546;6.912;2023-04-01T02:23:36;8.80;99.90
13652;DHT22;6899;51.546;6.912;2023-04-01T02:26:06;8.80;99.90
13652;DHT22;6899;51.546;6.912;2023-04-01T02:28:39;8.80;99.90
13652;DHT22;6899;51.546;6.912;2023-04-01T02:31:08;8.80;99.90
13652;DHT22;6899;51.546;6.912;2023-04-01T02:33:37;8.90;99.90
13652;DHT22;6899;51.546;6.912;2023-04-01T02:36:05;8.80;99.90
13652;DHT22;6899;51.546;6.912;2023-04-01T02:38:32;8.80;99.90
13652;DHT22;6899;51.546;6.912;2023-04-01T02:41:09;8.80;99.90
13652;DHT22;6899;51.546;6.912;2023-04-01T02:43:36;8.90;99.90
13652;DHT22;6899;51.546;6.912;2023-04-01T02:46:04;8.80;99.90
13652;DHT22;6899;51.546;6.912;2023-04-01T02:48:30;8.80;99.90
13652;DHT22;6899;51.546;6.912;2023-04-01T02:50:57;8.80;99.90
13652;DHT22;6899;51.546;6.912;2023-04-01T02:53:24;8.80;99.90
13652;DHT22;6899;51.546;6.912;2023-04-01T02:56:02;8.80;99.90
13652;DHT22;6899;51.546;6.912;2023-04-01T02:58:30;8.80;99.90
13652;DHT22;6899;51.546;6.912;2023-04-01T03:00:57;8.80;99.90
13652;DHT22;6899;51.546;6.912;2023-04-01T03:03:26;8.80;99.90
13652;DHT22;6899;51.546;6.912;2023-04-01T03:05:53;8.70;99.90
13652;DHT22;6899;51.546;6.912;2023-04-01T03:08:21;8.70;99.90
13652;DHT22;6899;51.546;6.912;2023-04-01T03:10:48;8.70;99.90
13652;DHT22;6899;51.546;6.912;2023-04-01T03:13:15;8.80;99.90
13652;DHT22;6899;51.546;6.912;2023-04-01T03:15:43;8.80;99.90
13652;DHT22;6899;51.546;6.912;2023-04-01T03:18:10;8.80;99.90
13652;DHT22;6899;51.546;6.912;2023-04-01T03:20:39;8.80;99.90
13652;DHT22;6899;51.546;6.912;2023-04-01T03:23:07;8.80;99.90
13652;DHT22;6899;51.546;6.912;2023-04-01T03:25:41;8.80;99.90
13652;DHT22;6899;51.546;6.912;2023-04-01T03:28:11;8.90;99.90
13652;DHT22;6899;51.546;6.912;2023-04-01T03:30:39;8.80;99.90
13652;DHT22;6899;51.546;6.912;2023-04-01T03:33:07;8.80;99.90
13652;DHT22;6899;51.546;6.912;2023-04-01T03:35:37;8.80;99.90
13652;DHT22;6899;51.546;6.912;2023-04-01T03:38:04;8.80;99.90
13652;DHT22;6899;51.546;6.912;2023-04-01T03:40:30;8.80;99.90
13652;DHT22;6899;51.546;6.912;2023-04-01T03:42:58;8.80;99.90
13652;DHT22;6899;51.546;6.912;2023-04-01T03:45:25;8.80;99.90
13652;DHT22;6899;51.546;6.912;2023-04-01T03:47:52;8.80;99.90
13652;DHT22;6899;51.546;6.912;2023-04-01T03:50:23;8.80;99.90
13652;DHT22;6899;51.546;6.912;2023-04-01T03:52:50;8.80;99.90
13652;DHT22;6899;51.546;6.912;2023-04-01T03:55:17;8.80;99.90
13652;DHT22;6899;51.546;6.912;2023-04-01T03:58:00;8.80;99.90
13652;DHT22;6899;51.546;6.912;2023-04-01T04:00:30;8.80;99.90
13652;DHT22;6899;51.546;6.912;2023-04-01T04:02:58;8.80;99.90
13652;DHT22;6899;51.546;6.912;2023-04-01T04:05:27;8.80;99.90
13652;DHT22;6899;51.546;6.912;2023-04-01T04:07:54;8.80;99.90
13652;DHT22;6899;51.546;6.912;2023-04-01T04:10:21;8.90;99.90
13652;DHT22;6899;51.546;6.912;2023-04-01T04:12:50;8.80;99.90
13652;DHT22;6899;51.546;6.912;2023-04-01T04:15:18;8.90;99.90
13652;DHT22;6899;51.546;6.912;2023-04-01T04:17:45;8.80;99.90
13652;DHT22;6899;51.546;6.912;2023-04-01T04:20:12;8.80;99.90
13652;DHT22;6899;51.546;6.912;2023-04-01T04:22:40;8.90;99.90
13652;DHT22;6899;51.546;6.912;2023-04-01T04:25:08;8.90;99.90
13652;DHT22;6899;51.546;6.912;2023-04-01T04:27:35;8.90;99.90
13652;DHT22;6899;51.546;6.912;2023-04-01T04:30:02;8.90;99.90
13652;DHT22;6899;51.546;6.912;2023-04-01T04:32:30;8.90;99.90
13652;DHT22;6899;51.546;6.912;2023-04-01T04:34:57;8.90;99.90
13652;DHT22;6899;51.546;6.912;2023-04-01T04:37:27;8.90;99.90
13652;DHT22;6899;51.546;6.912;2023-04-01T04:39:55;8.90;99.90
13652;DHT22;6899;51.546;6.912;2023-04-01T04:42:22;8.90;99.90
13652;DHT22;6899;51.546;6.912;2023-04-01T04:44:49;8.90;99.90
13652;DHT22;6899;51.546;6.912;2023-04-01T04:47:16;8.80;99.90
13652;DHT22;6899;51.546;6.912;2023-04-01T04:49:42;8.80;99.90
13652;DHT22;6899;51.546;6.912;2023-04-01T04:52:09;8.80;99.90
13652;DHT22;6899;51.546;6.912;2023-04-01T04:54:36;8.80;99.90
13652;DHT22;6899;51.546;6.912;2023-04-01T04:57:05;8.80;99.90
13652;DHT22;6899;51.546;6.912;2023-04-01T04:59:32;8.80;99.90
13652;DHT22;6899;51.546;6.912;2023-04-01T05:02:00;8.80;99.90
13652;DHT22;6899;51.546;6.912;2023-04-01T05:04:27;8.80;99.90
13652;DHT22;6899;51.546;6.912;2023-04-01T05:06:54;8.80;99.90
13652;DHT22;6899;51.546;6.912;2023-04-01T05:09:21;8.90;99.90
13652;DHT22;6899;51.546;6.912;2023-04-01T05:11:48;8.80;99.90
13652;DHT22;6899;51.546;6.912;2023-04-01T05:14:17;8.90;99.90
13652;DHT22;6899;51.546;6.912;2023-04-01T05:16:44;8.80;99.90
13652;DHT22;6899;51.546;6.912;2023-04-01T05:19:10;8.80;99.90
13652;DHT22;6899;51.546;6.912;2023-04-01T05:21:37;8.80;99.90
13652;DHT22;6899;51.546;6.912;2023-04-01T05:24:08;8.80;99.90
13652;DHT22;6899;51.546;6.912;2023-04-01T05:26:35;8.80;99.90
13652;DHT22;6899;51.546;6.912;2023-04-01T05:29:03;8.80;99.90
13652;DHT22;6899;51.546;6.912;2023-04-01T05:31:31;8.90;99.90
13652;DHT22;6899;51.546;6.912;2023-04-01T05:34:01;8.80;99.90
13652;DHT22;6899;51.546;6.912;2023-04-01T05:36:28;8.80;99.90
13652;DHT22;6899;51.546;6.912;2023-04-01T05:39:01;8.80;99.90
13652;DHT22;6899;51.546;6.912;2023-04-01T05:41:31;8.80;99.90
13652;DHT22;6899;51.546;6.912;2023-04-01T05:44:00;8.90;99.90
13652;DHT22;6899;51.546;6.912;2023-04-01T05:46:27;8.90;99.90
13652;DHT22;6899;51.546;6.912;2023-04-01T05:49:10;8.80;99.90
13652;DHT22;6899;51.546;6.912;2023-04-01T05:51:37;8.90;99.90
13652;DHT22;6899;51.546;6.912;2023-04-01T05:54:05;8.90;99.90
13652;DHT22;6899;51.546;6.912;2023-04-01T05:56:41;8.90;99.90
13652;DHT22;6899;51.546;6.912;2023-04-01T05:59:10;8.90;99.90
13652;DHT22;6899;51.546;6.912;2023-04-01T06:01:37;8.90;99.90
13652;DHT22;6899;51.546;6.912;2023-04-01T06:04:13;8.90;99.90
13652;DHT22;6899;51.546;6.912;2023-04-01T06:06:40;8.90;99.90
13652;DHT22;6899;51.546;6.912;2023-04-01T06:09:13;8.90;99.90
13652;DHT22;6899;51.546;6.912;2023-04-01T06:11:51;8.90;99.90
13652;DHT22;6899;51.546;6.912;2023-04-01T06:14:28;8.90;99.90
13652;DHT22;6899;51.546;6.912;2023-04-01T06:17:11;8.90;99.90
13652;DHT22;6899;51.546;6.912;2023-04-01T06:19:48;8.90;99.90
13652;DHT22;6899;51.546;6.912;2023-04-01T06:22:43;8.90;99.90
13652;DHT22;6899;51.546;6.912;2023-04-01T06:25:26;8.90;99.90
13652;DHT22;6899;51.546;6.912;2023-04-01T06:31:05;8.90;99.90
13652;DHT22;6899;51.546;6.912;2023-04-01T06:34:01;8.90;99.90
13652;DHT22;6899;51.546;6.912;2023-04-01T06:36:58;8.90;99.90
13652;DHT22;6899;51.546;6.912;2023-04-01T06:39:47;8.90;99.90
13652;DHT22;6899;51.546;6.912;2023-04-01T06:45:44;8.90;99.90
13652;DHT22;6899;51.546;6.912;2023-04-01T06:48:32;9.00;99.90
13652;DHT22;6899;51.546;6.912;2023-04-01T06:51:09;9.00;99.90
13652;DHT22;6899;51.546;6.912;2023-04-01T06:53:45;8.90;99.90
13652;DHT22;6899;51.546;6.912;2023-04-01T06:56:18;8.90;99.90
13652;DHT22;6899;51.546;6.912;2023-04-01T06:58:49;8.90;99.90
13652;DHT22;6899;51.546;6.912;2023-04-01T07:01:20;9.00;99.90
13652;DHT22;6899;51.546;6.912;2023-04-01T07:03:51;9.00;99.90
13652;DHT22;6899;51.546;6.912;2023-04-01T07:06:25;9.00;99.90
13652;DHT22;6899;51.546;6.912;2023-04-01T07:09:06;9.10;99.90
13652;DHT22;6899;51.546;6.912;2023-04-01T07:11:38;9.00;99.90
13652;DHT22;6899;51.546;6.912;2023-04-01T07:14:13;9.10;99.90
13652;DHT22;6899;51.546;6.912;2023-04-01T07:16:46;9.10;99.90
13652;DHT22;6899;51.546;6.912;2023-04-01T07:19:18;9.10;99.90
13652;DHT22;6899;51.546;6.912;2023-04-01T07:22:14;9.10;99.90
13652;DHT22;6899;51.546;6.912;2023-04-01T07:24:46;9.20;99.90
13652;DHT22;6899;51.546;6.912;2023-04-01T07:27:13;9.10;99.90
13652;DHT22;6899;51.546;6.912;2023-04-01T07:29:41;9.20;99.90
13652;DHT22;6899;51.546;6.912;2023-04-01T07:32:26;9.20;99.90
13652;DHT22;6899;51.546;6.912;2023-04-01T07:35:09;9.20;99.90
13652;DHT22;6899;51.546;6.912;2023-04-01T07:38:20;9.20;99.90
13652;DHT22;6899;51.546;6.912;2023-04-01T07:41:02;9.20;99.90
13652;DHT22;6899;51.546;6.912;2023-04-01T07:43:53;9.20;99.90
13652;DHT22;6899;51.546;6.912;2023-04-01T07:46:31;9.20;99.90
13652;DHT22;6899;51.546;6.912;2023-04-01T07:49:03;9.20;99.90
13652;DHT22;6899;51.546;6.912;2023-04-01T07:51:37;9.30;99.90
13652;DHT22;6899;51.546;6.912;2023-04-01T07:54:13;9.30;99.90
13652;DHT22;6899;51.546;6.912;2023-04-01T07:56:51;9.20;99.90
13652;DHT22;6899;51.546;6.912;2023-04-01T07:59:22;9.30;99.90
13652;DHT22;6899;51.546;6.912;2023-04-01T08:02:02;9.40;99.90
13652;DHT22;6899;51.546;6.912;2023-04-01T08:04:46;9.40;99.90
13652;DHT22;6899;51.546;6.912;2023-04-01T08:07:18;9.30;99.90
13652;DHT22;6899;51.546;6.912;2023-04-01T08:09:53;9.30;99.90
13652;DHT22;6899;51.546;6.912;2023-04-01T08:12:28;9.40;99.90
13652;DHT22;6899;51.546;6.912;2023-04-01T08:15:07;9.30;99.90
13652;DHT22;6899;51.546;6.912;2023-04-01T08:17:42;9.40;99.90
13652;DHT22;6899;51.546;6.912;2023-04-01T08:20:21;9.30;99.90
13652;DHT22;6899;51.546;6.912;2023-04-01T08:22:58;9.30;99.90
13652;DHT22;6899;51.546;6.912;2023-04-01T08:25:28;9.30;99.90
13652;DHT22;6899;51.546;6.912;2023-04-01T08:28:02;9.40;99.90
13652;DHT22;6899;51.546;6.912;2023-04-01T08:30:38;9.40;99.90
13652;DHT22;6899;51.546;6.912;2023-04-01T08:33:12;9.40;99.90
13652;DHT22;6899;51.546;6.912;2023-04-01T08:35:47;9.40;99.90
13652;DHT22;6899;51.546;6.912;2023-04-01T08:38:19;9.40;99.90
13652;DHT22;6899;51.546;6.912;2023-04-01T08:41:11;9.40;99.90
13652;DHT22;6899;51.546;6.912;2023-04-01T09:40:54;10.60;99.90
13652;DHT22;6899;51.546;6.912;2023-04-01T09:43:27;10.50;99.90
13652;DHT22;6899;51.546;6.912;2023-04-01T09:46:16;10.40;99.90
13652;DHT22;6899;51.546;6.912;2023-04-01T09:49:10;10.30;99.90
13652;DHT22;6899;51.546;6.912;2023-04-01T09:51:47;10.20;99.90
13652;DHT22;6899;51.546;6.912;2023-04-01T09:54:28;10.20;99.90
13652;DHT22;6899;51.546;6.912;2023-04-01T10:03:31;10.30;99.90
13652;DHT22;6899;51.546;6.912;2023-04-01T10:09:31;10.40;99.90
13652;DHT22;6899;51.546;6.912;2023-04-01T10:18:40;10.50;99.90
13652;DHT22;6899;51.546;6.912;2023-04-01T10:24:37;10.60;99.90
13652;DHT22;6899;51.546;6.912;2023-04-01T10:33:48;10.50;99.90
13652;DHT22;6899;51.546;6.912;2023-04-01T10:36:47;10.50;99.90
13652;DHT22;6899;51.546;6.912;2023-04-01T10:39:34;10.50;99.90
13652;DHT22;6899;51.546;6.912;2023-04-01T15:52:44;10.70;99.90
13652;DHT22;6899;51.546;6.912;2023-04-01T15:55:25;10.60;99.90
13652;DHT22;6899;51.546;6.912;2023-04-01T15:58:06;10.50;99.90
13652;DHT22;6899;51.546;6.912;2023-04-01T16:00:47;10.40;99.90
13652;DHT22;6899;51.546;6.912;2023-04-01T16:03:23;10.40;99.90
13652;DHT22;6899;51.546;6.912;2023-04-01T16:06:08;10.40;99.90
13652;DHT22;6899;51.546;6.912;2023-04-01T16:08:56;10.30;99.90
13652;DHT22;6899;51.546;6.912;2023-04-01T16:11:29;10.30;99.90
13652;DHT22;6899;51.546;6.912;2023-04-01T16:14:14;10.30;99.90
13652;DHT22;6899;51.546;6.912;2023-04-01T16:16:54;10.20;99.90
13652;DHT22;6899;51.546;6.912;2023-04-01T16:19:33;10.20;99.90
13652;DHT22;6899;51.546;6.912;2023-04-01T16:22:07;10.30;99.90
13652;DHT22;6899;51.546;6.912;2023-04-01T16:24:40;10.30;99.90
13652;DHT22;6899;51.546;6.912;2023-04-01T16:27:13;10.20;99.90
13652;DHT22;6899;51.546;6.912;2023-04-01T16:29:46;10.30;99.90
13652;DHT22;6899;51.546;6.912;2023-04-01T16:32:26;10.10;99.90
13652;DHT22;6899;51.546;6.912;2023-04-01T16:35:20;10.10;99.90
13652;DHT22;6899;51.546;6.912;2023-04-01T16:37:50;10.10;99.90
13652;DHT22;6899;51.546;6.912;2023-04-01T16:40:25;10.10;99.90
13652;DHT22;6899;51.546;6.912;2023-04-01T16:43:09;10.20;99.90
13652;DHT22;6899;51.546;6.912;2023-04-01T16:45:41;10.10;99.90
13652;DHT22;6899;51.546;6.912;2023-04-01T16:48:12;10.10;99.90
13652;DHT22;6899;51.546;6.912;2023-04-01T16:50:46;10.10;99.90
13652;DHT22;6899;51.546;6.912;2023-04-01T16:53:18;10.10;99.90
13652;DHT22;6899;51.546;6.912;2023-04-01T16:55:52;10.10;99.90
13652;DHT22;6899;51.546;6.912;2023-04-01T16:58:27;10.10;99.90
13652;DHT22;6899;51.546;6.912;2023-04-01T17:01:04;10.00;99.90
13652;DHT22;6899;51.546;6.912;2023-04-01T17:03:36;10.00;99.90
13652;DHT22;6899;51.546;6.912;2023-04-01T17:06:12;10.00;99.90
13652;DHT22;6899;51.546;6.912;2023-04-01T17:08:57;10.10;99.90
13652;DHT22;6899;51.546;6.912;2023-04-01T17:11:31;10.00;99.90
13652;DHT22;6899;51.546;6.912;2023-04-01T17:14:06;9.90;99.90
13652;DHT22;6899;51.546;6.912;2023-04-01T17:17:10;9.90;99.90
13652;DHT22;6899;51.546;6.912;2023-04-01T17:19:47;9.80;99.90
13652;DHT22;6899;51.546;6.912;2023-04-01T17:22:27;9.90;99.90
13652;DHT22;6899;51.546;6.912;2023-04-01T17:25:12;9.80;99.90
13652;DHT22;6899;51.546;6.912;2023-04-01T17:27:54;9.80;99.90
13652;DHT22;6899;51.546;6.912;2023-04-01T17:30:30;9.80;99.90
13652;DHT22;6899;51.546;6.912;2023-04-01T17:33:31;9.80;99.90
13652;DHT22;6899;51.546;6.912;2023-04-01T17:36:12;9.80;99.90
13652;DHT22;6899;51.546;6.912;2023-04-01T17:39:02;9.80;99.90
13652;DHT22;6899;51.546;6.912;2023-04-01T17:41:47;9.80;99.90
13652;DHT22;6899;51.546;6.912;2023-04-01T17:47:31;9.80;99.90
13652;DHT22;6899;51.546;6.912;2023-04-01T17:50:07;9.80;99.90
13652;DHT22;6899;51.546;6.912;2023-04-01T17:53:02;9.80;99.90
13652;DHT22;6899;51.546;6.912;2023-04-01T17:55:52;9.80;99.90
13652;DHT22;6899;51.546;6.912;2023-04-01T17:58:22;9.80;99.90
13652;DHT22;6899;51.546;6.912;2023-04-01T18:01:15;9.70;99.90
13652;DHT22;6899;51.546;6.912;2023-04-01T18:04:02;9.80;99.90
13652;DHT22;6899;51.546;6.912;2023-04-01T18:06:35;9.80;99.90
13652;DHT22;6899;51.546;6.912;2023-04-01T18:09:13;9.80;99.90
13652;DHT22;6899;51.546;6.912;2023-04-01T18:11:50;9.80;99.90
13652;DHT22;6899;51.546;6.912;2023-04-01T18:14:35;9.80;99.90
13652;DHT22;6899;51.546;6.912;2023-04-01T18:17:17;9.80;99.90
13652;DHT22;6899;51.546;6.912;2023-04-01T18:19:57;9.90;99.90
13652;DHT22;6899;51.546;6.912;2023-04-01T18:22:33;9.90;99.90
13652;DHT22;6899;51.546;6.912;2023-04-01T18:25:15;9.80;99.90
13652;DHT22;6899;51.546;6.912;2023-04-01T18:27:48;9.90;99.90
13652;DHT22;6899;51.546;6.912;2023-04-01T18:30:25;9.80;99.90
13652;DHT22;6899;51.546;6.912;2023-04-01T18:32:57;9.80;99.90
13652;DHT22;6899;51.546;6.912;2023-04-01T18:35:31;9.70;99.90
13652;DHT22;6899;51.546;6.912;2023-04-01T18:38:10;9.80;99.90
13652;DHT22;6899;51.546;6.912;2023-04-01T18:40:42;9.80;99.90
13652;DHT22;6899;51.546;6.912;2023-04-01T18:43:16;9.80;99.90
13652;DHT22;6899;51.546;6.912;2023-04-01T18:45:49;9.90;99.90
13652;DHT22;6899;51.546;6.912;2023-04-01T18:48:33;9.80;99.90
13652;DHT22;6899;51.546;6.912;2023-04-01T18:51:11;9.80;99.90
13652;DHT22;6899;51.546;6.912;2023-04-01T18:53:42;9.80;99.90
13652;DHT22;6899;51.546;6.912;2023-04-01T18:56:15;9.80;99.90
13652;DHT22;6899;51.546;6.912;2023-04-01T18:58:53;9.90;99.90
13652;DHT22;6899;51.546;6.912;2023-04-01T19:01:24;9.80;99.90
13652;DHT22;6899;51.546;6.912;2023-04-01T19:04:03;9.80;99.90
13652;DHT22;6899;51.546;6.912;2023-04-01T19:06:34;9.70;99.90
13652;DHT22;6899;51.546;6.912;2023-04-01T19:09:20;9.70;99.90
13652;DHT22;6899;51.546;6.912;2023-04-01T19:12:14;9.70;99.90
13652;DHT22;6899;51.546;6.912;2023-04-01T19:14:56;9.70;99.90
13652;DHT22;6899;51.546;6.912;2023-04-01T19:17:36;9.70;99.90
13652;DHT22;6899;51.546;6.912;2023-04-01T19:20:19;9.70;99.90
13652;DHT22;6899;51.546;6.912;2023-04-01T19:23:06;9.60;99.90
13652;DHT22;6899;51.546;6.912;2023-04-01T19:25:37;9.60;99.90
13652;DHT22;6899;51.546;6.912;2023-04-01T19:28:26;9.50;99.90
13652;DHT22;6899;51.546;6.912;2023-04-01T19:30:56;9.50;99.90
13652;DHT22;6899;51.546;6.912;2023-04-01T19:33:38;9.50;99.90
13652;DHT22;6899;51.546;6.912;2023-04-01T19:36:15;9.40;99.90
13652;DHT22;6899;51.546;6.912;2023-04-01T19:39:00;9.40;99.90
13652;DHT22;6899;51.546;6.912;2023-04-01T19:41:39;9.40;99.90
13652;DHT22;6899;51.546;6.912;2023-04-01T19:44:19;9.30;99.90
13652;DHT22;6899;51.546;6.912;2023-04-01T19:46:51;9.30;99.90
13652;DHT22;6899;51.546;6.912;2023-04-01T19:49:32;9.30;99.90
13652;DHT22;6899;51.546;6.912;2023-04-01T19:52:10;9.20;99.90
13652;DHT22;6899;51.546;6.912;2023-04-01T19:54:48;9.20;99.90
13652;DHT22;6899;51.546;6.912;2023-04-01T19:57:25;9.20;99.90
13652;DHT22;6899;51.546;6.912;2023-04-01T19:59:59;9.10;99.90
13652;DHT22;6899;51.546;6.912;2023-04-01T20:02:55;9.10;99.90
13652;DHT22;6899;51.546;6.912;2023-04-01T20:05:35;9.00;99.90
13652;DHT22;6899;51.546;6.912;2023-04-01T20:08:10;9.00;99.90
13652;DHT22;6899;51.546;6.912;2023-04-01T20:10:45;9.00;99.90
13652;DHT22;6899;51.546;6.912;2023-04-01T20:13:21;9.00;99.90
13652;DHT22;6899;51.546;6.912;2023-04-01T20:16:00;9.00;99.90
13652;DHT22;6899;51.546;6.912;2023-04-01T20:18:36;8.90;99.90
13652;DHT22;6899;51.546;6.912;2023-04-01T20:21:18;8.90;99.90
13652;DHT22;6899;51.546;6.912;2023-04-01T20:23:50;8.70;99.90
13652;DHT22;6899;51.546;6.912;2023-04-01T20:26:23;8.80;99.90
13652;DHT22;6899;51.546;6.912;2023-04-01T20:29:10;8.70;99.90
13652;DHT22;6899;51.546;6.912;2023-04-01T20:31:41;8.70;99.90
13652;DHT22;6899;51.546;6.912;2023-04-01T20:34:18;8.70;99.90
13652;DHT22;6899;51.546;6.912;2023-04-01T20:36:58;8.70;99.90
13652;DHT22;6899;51.546;6.912;2023-04-01T20:42:34;8.50;99.90
13652;DHT22;6899;51.546;6.912;2023-04-01T20:45:23;8.50;99.90
13652;DHT22;6899;51.546;6.912;2023-04-01T20:48:09;8.50;99.90
13652;DHT22;6899;51.546;6.912;2023-04-01T20:50:43;8.40;99.90
13652;DHT22;6899;51.546;6.912;2023-04-01T20:53:14;8.40;99.90
13652;DHT22;6899;51.546;6.912;2023-04-01T20:56:11;8.30;99.90
13652;DHT22;6899;51.546;6.912;2023-04-01T20:58:52;8.30;99.90
13652;DHT22;6899;51.546;6.912;2023-04-01T21:01:29;8.20;99.90
13652;DHT22;6899;51.546;6.912;2023-04-01T21:04:22;8.20;99.90
13652;DHT22;6899;51.546;6.912;2023-04-01T21:07:08;8.20;99.90
13652;DHT22;6899;51.546;6.912;2023-04-01T21:09:55;8.20;99.90
13652;DHT22;6899;51.546;6.912;2023-04-01T21:12:37;8.20;99.90
13652;DHT22;6899;51.546;6.912;2023-04-01T21:15:29;8.20;99.90
13652;DHT22;6899;51.546;6.912;2023-04-01T21:18:14;8.10;99.90
13652;DHT22;6899;51.546;6.912;2023-04-01T21:20:59;8.10;99.90
13652;DHT22;6899;51.546;6.912;2023-04-01T21:23:42;8.00;99.90
13652;DHT22;6899;51.546;6.912;2023-04-01T21:26:26;7.90;99.90
13652;DHT22;6899;51.546;6.912;2023-04-01T21:29:16;7.90;99.90
13652;DHT22;6899;51.546;6.912;2023-04-01T21:31:59;7.90;99.90
13652;DHT22;6899;51.546;6.912;2023-04-01T21:37:58;7.90;99.90
13652;DHT22;6899;51.546;6.912;2023-04-01T21:40:49;7.90;99.90
13652;DHT22;6899;51.546;6.912;2023-04-01T21:43:24;7.90;99.90
13652;DHT22;6899;51.546;6.912;2023-04-01T21:46:26;7.90;99.90
13652;DHT22;6899;51.546;6.912;2023-04-01T21:49:19;7.80;99.90
13652;DHT22;6899;51.546;6.912;2023-04-01T21:52:16;7.80;99.90
13652;DHT22;6899;51.546;6.912;2023-04-01T21:58:36;7.70;99.90
13652;DHT22;6899;51.546;6.912;2023-04-01T22:01:26;7.70;99.90
13652;DHT22;6899;51.546;6.912;2023-04-01T22:04:21;7.60;99.90
13652;DHT22;6899;51.546;6.912;2023-04-01T22:06:54;7.50;99.90
13652;DHT22;6899;51.546;6.912;2023-04-01T22:09:27;7.50;99.90
13652;DHT22;6899;51.546;6.912;2023-04-01T22:12:00;7.50;99.90
13652;DHT22;6899;51.546;6.912;2023-04-01T22:14:47;7.50;99.90
13652;DHT22;6899;51.546;6.912;2023-04-01T22:17:25;7.40;99.90
13652;DHT22;6899;51.546;6.912;2023-04-01T22:19:57;7.30;99.90
13652;DHT22;6899;51.546;6.912;2023-04-01T22:22:35;7.30;99.90
13652;DHT22;6899;51.546;6.912;2023-04-01T22:25:08;7.30;99.90
13652;DHT22;6899;51.546;6.912;2023-04-01T22:27:42;7.20;99.90
13652;DHT22;6899;51.546;6.912;2023-04-01T22:30:19;7.20;99.90
13652;DHT22;6899;51.546;6.912;2023-04-01T22:32:49;7.10;99.90
13652;DHT22;6899;51.546;6.912;2023-04-01T22:35:36;7.10;99.90
13652;DHT22;6899;51.546;6.912;2023-04-01T22:38:23;7.10;99.90
13652;DHT22;6899;51.546;6.912;2023-04-01T22:40:56;7.10;99.90
13652;DHT22;6899;51.546;6.912;2023-04-01T22:43:34;7.10;99.90
13652;DHT22;6899;51.546;6.912;2023-04-01T22:46:26;7.10;99.90
13652;DHT22;6899;51.546;6.912;2023-04-01T22:49:02;7.00;99.90
13652;DHT22;6899;51.546;6.912;2023-04-01T22:51:40;7.00;99.90
13652;DHT22;6899;51.546;6.912;2023-04-01T22:54:17;7.00;99.90
13652;DHT22;6899;51.546;6.912;2023-04-01T22:56:49;7.00;99.90
13652;DHT22;6899;51.546;6.912;2023-04-01T22:59:21;6.90;99.90
13652;DHT22;6899;51.546;6.912;2023-04-01T23:01:52;6.90;99.90
13652;DHT22;6899;51.546;6.912;2023-04-01T23:04:24;6.90;99.90
13652;DHT22;6899;51.546;6.912;2023-04-01T23:07:23;6.90;99.90
13652;DHT22;6899;51.546;6.912;2023-04-01T23:09:56;6.90;99.90
13652;DHT22;6899;51.546;6.912;2023-04-01T23:12:25;6.80;99.90
13652;DHT22;6899;51.546;6.912;2023-04-01T23:14:54;6.80;99.90
13652;DHT22;6899;51.546;6.912;2023-04-01T23:17:47;6.80;99.90
13652;DHT22;6899;51.546;6.912;2023-04-01T23:20:47;6.70;99.90
13652;DHT22;6899;51.546;6.912;2023-04-01T23:23:36;6.60;99.90
13652;DHT22;6899;51.546;6.912;2023-04-01T23:26:08;6.60;99.90
13652;DHT22;6899;51.546;6.912;2023-04-01T23:28:45;6.50;99.90
13652;DHT22;6899;51.546;6.912;2023-04-01T23:31:32;6.40;99.90
13652;DHT22;6899;51.546;6.912;2023-04-01T23:34:02;6.40;99.90
13652;DHT22;6899;51.546;6.912;2023-04-01T23:36:38;6.40;99.90
13652;DHT22;6899;51.546;6.912;2023-04-01T23:39:17;6.40;99.90
13652;DHT22;6899;51.546;6.912;2023-04-01T23:41:47;6.40;99.90
13652;DHT22;6899;51.546;6.912;2023-04-01T23:44:15;6.50;99.90
13652;DHT22;6899;51.546;6.912;2023-04-01T23:46:44;6.40;99.90
13652;DHT22;6899;51.546;6.912;2023-04-01T23:49:34;6.40;99.90
13652;DHT22;6899;51.546;6.912;2023-04-01T23:52:11;6.30;99.90